createdAt,value
2023-04-12T00:04:47.267Z,9.40
2023-04-12T00:19:46.987Z,9.10
2023-04-12T00:34:46.774Z,9.20
2023-04-12T00:49:46.618Z,9.00
2023-04-12T01:04:46.452Z,9.80
2023-04-12T01:19:46.354Z,10.40
2023-04-12T01:34:46.140Z,10.90
2023-04-12T01:49:45.976Z,9.20
2023-04-12T02:04:45.838Z,10.20
2023-04-12T02:19:45.709Z,9.90
2023-04-12T02:34:45.510Z,9.50
2023-04-12T02:49:45.372Z,9.70
2023-04-12T03:04:45.198Z,9.10
2023-04-12T03:19:45.306Z,10.10
2023-04-12T03:34:44.903Z,9.20
2023-04-12T03:49:47.780Z,9.60
2023-04-12T04:04:44.613Z,10.70
2023-04-12T04:19:44.464Z,11.10
2023-04-12T04:34:44.327Z,11.20
2023-04-12T04:49:44.155Z,10.90
2023-04-12T05:04:44.019Z,12.50
2023-04-12T05:19:43.920Z,11.70
2023-04-12T05:34:43.730Z,11.60
2023-04-12T05:49:43.565Z,13.90
2023-04-12T06:04:50.711Z,16.20
2023-04-12T06:19:43.276Z,13.30
2023-04-12T06:34:43.115Z,11.60
2023-04-12T06:49:42.963Z,8.80
2023-04-12T07:04:42.766Z,8.40
2023-04-12T07:19:42.625Z,7.60
2023-04-12T07:34:42.554Z,6.80
2023-04-12T07:49:42.298Z,9.20
2023-04-12T08:04:42.123Z,5.50
2023-04-12T08:19:42.011Z,4.80
2023-04-12T08:34:43.657Z,4.90
2023-04-12T08:49:41.691Z,3.50
2023-04-12T09:04:41.574Z,5.70
2023-04-12T09:19:41.340Z,3.80
2023-04-12T09:34:41.166Z,3.40
2023-04-12T09:49:41.061Z,6.30
2023-04-12T10:04:40.919Z,4.90
2023-04-12T10:19:40.710Z,6.30
2023-04-12T10:34:40.518Z,4.00
2023-04-12T10:49:40.374Z,4.50
2023-04-12T11:04:40.275Z,4.50
2023-04-12T11:19:40.099Z,5.10
2023-04-12T11:34:39.855Z,5.00
2023-04-12T11:49:39.690Z,4.80
2023-04-12T12:04:39.778Z,3.40
2023-04-12T12:19:39.390Z,4.40
2023-04-12T12:34:39.221Z,3.80
2023-04-12T12:49:39.054Z,5.00
2023-04-12T13:04:38.975Z,4.60
2023-04-12T13:19:38.730Z,3.90
2023-04-12T13:34:38.562Z,4.60
2023-04-12T13:49:40.055Z,6.10
2023-04-12T14:04:38.339Z,4.10
2023-04-12T14:19:38.107Z,5.20
2023-04-12T14:34:37.946Z,3.30
2023-04-12T14:49:37.767Z,5.60
2023-04-12T15:04:37.838Z,5.00
2023-04-12T15:19:37.493Z,5.70
2023-04-12T15:34:37.270Z,4.00
2023-04-12T15:49:37.178Z,4.10
2023-04-12T16:04:37.102Z,9.50
2023-04-12T16:19:36.805Z,9.10
2023-04-12T16:34:36.664Z,5.90
2023-04-12T16:49:37.511Z,5.80
2023-04-12T17:04:36.541Z,7.20
2023-04-12T17:19:36.182Z,4.90
2023-04-12T17:34:36.010Z,7.30
2023-04-12T17:49:36.744Z,8.30
2023-04-12T18:04:37.059Z,8.20
2023-04-12T18:19:35.540Z,7.90
2023-04-12T18:34:35.462Z,7.70
2023-04-12T18:49:35.260Z,6.30
2023-04-12T19:04:35.035Z,5.80
2023-04-12T19:19:34.902Z,5.10
2023-04-12T19:34:34.695Z,4.80
2023-04-12T19:49:34.554Z,4.70
2023-04-12T20:04:34.531Z,6.90
2023-04-12T20:19:34.217Z,6.80
2023-04-12T20:34:34.052Z,4.20
2023-04-12T20:49:33.908Z,5.00
2023-04-12T21:04:33.823Z,6.80
2023-04-12T21:19:33.576Z,5.90
2023-04-12T21:34:33.427Z,4.80
2023-04-12T21:49:33.270Z,8.00
2023-04-12T22:04:34.131Z,7.30
2023-04-12T22:19:33.041Z,7.60
2023-04-12T22:34:32.810Z,6.80
2023-04-12T22:49:32.615Z,7.30
2023-04-12T23:04:32.507Z,7.10
2023-04-12T23:19:32.315Z,7.20
2023-04-12T23:34:32.131Z,8.70
2023-04-12T23:49:31.973Z,5.60
